<?xml version="1.0" encoding="UTF-8"?>
<gpx xmlns:xsi="http://www.w3.org/2001/XMLSchema-instance" xsi:schemaLocation="http://www.topografix.com/GPX/1/1 http://www.topografix.com/GPX/1/1/gpx.xsd" creator="StravaGPX" version="1.1" xmlns="http://www.topografix.com/GPX/1/1">
 <metadata>
  <time>2025-09-04T14:57:18Z</time>
 </metadata>
 <trk>
  <name>Dublin Decathlon</name>
  <type>walking</type>
  <trkseg>
   <trkpt lat="53.3528950" lon="-6.2470130">
    <ele>7.4</ele>
    <time>2025-09-04T14:57:18Z</time>
   </trkpt>
   <trkpt lat="53.3528700" lon="-6.2470780">
    <ele>7.4</ele>
    <time>2025-09-04T14:57:45Z</time>
   </trkpt>
   <trkpt lat="53.3528310" lon="-6.2471380">
    <ele>7.4</ele>
    <time>2025-09-04T14:57:50Z</time>
   </trkpt>
   <trkpt lat="53.3528000" lon="-6.2472390">
    <ele>7.3</ele>
    <time>2025-09-04T14:57:55Z</time>
   </trkpt>
   <trkpt lat="53.3527640" lon="-6.2473070">
    <ele>7.3</ele>
    <time>2025-09-04T14:58:01Z</time>
   </trkpt>
   <trkpt lat="53.3527280" lon="-6.2473900">
    <ele>7.3</ele>
    <time>2025-09-04T14:58:06Z</time>
   </trkpt>
   <trkpt lat="53.3526690" lon="-6.2474520">
    <ele>7.4</ele>
    <time>2025-09-04T14:58:11Z</time>
   </trkpt>
   <trkpt lat="53.3526220" lon="-6.2475200">
    <ele>7.5</ele>
    <time>2025-09-04T14:58:17Z</time>
   </trkpt>
   <trkpt lat="53.3525740" lon="-6.2475930">
    <ele>7.6</ele>
    <time>2025-09-04T14:58:22Z</time>
   </trkpt>
   <trkpt lat="53.3525470" lon="-6.2476960">
    <ele>7.7</ele>
    <time>2025-09-04T14:58:27Z</time>
   </trkpt>
   <trkpt lat="53.3525120" lon="-6.2478070">
    <ele>7.8</ele>
    <time>2025-09-04T14:58:32Z</time>
   </trkpt>
   <trkpt lat="53.3524670" lon="-6.2479130">
    <ele>7.9</ele>
    <time>2025-09-04T14:58:37Z</time>
   </trkpt>
   <trkpt lat="53.3524670" lon="-6.2480780">
    <ele>8.0</ele>
    <time>2025-09-04T14:58:43Z</time>
   </trkpt>
   <trkpt lat="53.3525260" lon="-6.2482310">
    <ele>7.9</ele>
    <time>2025-09-04T14:58:49Z</time>
   </trkpt>
   <trkpt lat="53.3524680" lon="-6.2482500">
    <ele>8.0</ele>
    <time>2025-09-04T14:58:54Z</time>
   </trkpt>
   <trkpt lat="53.3524520" lon="-6.2483790">
    <ele>8.1</ele>
    <time>2025-09-04T14:58:59Z</time>
   </trkpt>
   <trkpt lat="53.3524110" lon="-6.2484740">
    <ele>8.2</ele>
    <time>2025-09-04T14:59:04Z</time>
   </trkpt>
   <trkpt lat="53.3523770" lon="-6.2485860">
    <ele>8.4</ele>
    <time>2025-09-04T14:59:10Z</time>
   </trkpt>
   <trkpt lat="53.3523430" lon="-6.2486810">
    <ele>8.7</ele>
    <time>2025-09-04T14:59:16Z</time>
   </trkpt>
   <trkpt lat="53.3522250" lon="-6.2487670">
    <ele>9.0</ele>
    <time>2025-09-04T14:59:21Z</time>
   </trkpt>
   <trkpt lat="53.3520850" lon="-6.2486750">
    <ele>9.5</ele>
    <time>2025-09-04T14:59:26Z</time>
   </trkpt>
   <trkpt lat="53.3520200" lon="-6.2486900">
    <ele>9.9</ele>
    <time>2025-09-04T14:59:31Z</time>
   </trkpt>
   <trkpt lat="53.3519370" lon="-6.2487010">
    <ele>10.2</ele>
    <time>2025-09-04T14:59:37Z</time>
   </trkpt>
   <trkpt lat="53.3518590" lon="-6.2487760">
    <ele>10.5</ele>
    <time>2025-09-04T14:59:42Z</time>
   </trkpt>
   <trkpt lat="53.3517790" lon="-6.2489030">
    <ele>10.6</ele>
    <time>2025-09-04T14:59:48Z</time>
   </trkpt>
   <trkpt lat="53.3517340" lon="-6.2489380">
    <ele>10.5</ele>
    <time>2025-09-04T14:59:53Z</time>
   </trkpt>
   <trkpt lat="53.3516680" lon="-6.2489700">
    <ele>10.5</ele>
    <time>2025-09-04T14:59:58Z</time>
   </trkpt>
   <trkpt lat="53.3516050" lon="-6.2490380">
    <ele>10.5</ele>
    <time>2025-09-04T15:00:03Z</time>
   </trkpt>
   <trkpt lat="53.3515590" lon="-6.2491230">
    <ele>10.4</ele>
    <time>2025-09-04T15:00:09Z</time>
   </trkpt>
   <trkpt lat="53.3515010" lon="-6.2492440">
    <ele>10.2</ele>
    <time>2025-09-04T15:00:15Z</time>
   </trkpt>
   <trkpt lat="53.3514090" lon="-6.2492260">
    <ele>10.2</ele>
    <time>2025-09-04T15:00:21Z</time>
   </trkpt>
   <trkpt lat="53.3513230" lon="-6.2492230">
    <ele>10.2</ele>
    <time>2025-09-04T15:00:26Z</time>
   </trkpt>
   <trkpt lat="53.3512750" lon="-6.2493310">
    <ele>10.2</ele>
    <time>2025-09-04T15:00:32Z</time>
   </trkpt>
   <trkpt lat="53.3512390" lon="-6.2494590">
    <ele>10.2</ele>
    <time>2025-09-04T15:00:38Z</time>
   </trkpt>
   <trkpt lat="53.3512030" lon="-6.2495680">
    <ele>10.1</ele>
    <time>2025-09-04T15:00:43Z</time>
   </trkpt>
   <trkpt lat="53.3511600" lon="-6.2496750">
    <ele>10.0</ele>
    <time>2025-09-04T15:00:49Z</time>
   </trkpt>
   <trkpt lat="53.3511270" lon="-6.2497480">
    <ele>9.9</ele>
    <time>2025-09-04T15:00:54Z</time>
   </trkpt>
   <trkpt lat="53.3511160" lon="-6.2499040">
    <ele>9.7</ele>
    <time>2025-09-04T15:01:00Z</time>
   </trkpt>
   <trkpt lat="53.3510680" lon="-6.2499940">
    <ele>9.5</ele>
    <time>2025-09-04T15:01:05Z</time>
   </trkpt>
   <trkpt lat="53.3510080" lon="-6.2500520">
    <ele>9.4</ele>
    <time>2025-09-04T15:01:10Z</time>
   </trkpt>
   <trkpt lat="53.3509500" lon="-6.2500830">
    <ele>9.4</ele>
    <time>2025-09-04T15:01:16Z</time>
   </trkpt>
   <trkpt lat="53.3509050" lon="-6.2501130">
    <ele>9.4</ele>
    <time>2025-09-04T15:01:21Z</time>
   </trkpt>
   <trkpt lat="53.3509440" lon="-6.2501510">
    <ele>9.4</ele>
    <time>2025-09-04T15:01:28Z</time>
   </trkpt>
   <trkpt lat="53.3510070" lon="-6.2501970">
    <ele>9.2</ele>
    <time>2025-09-04T15:01:33Z</time>
   </trkpt>
   <trkpt lat="53.3511060" lon="-6.2502520">
    <ele>8.8</ele>
    <time>2025-09-04T15:01:38Z</time>
   </trkpt>
   <trkpt lat="53.3511910" lon="-6.2502620">
    <ele>8.6</ele>
    <time>2025-09-04T15:01:44Z</time>
   </trkpt>
   <trkpt lat="53.3512730" lon="-6.2502820">
    <ele>8.3</ele>
    <time>2025-09-04T15:01:49Z</time>
   </trkpt>
   <trkpt lat="53.3513210" lon="-6.2503250">
    <ele>8.0</ele>
    <time>2025-09-04T15:01:54Z</time>
   </trkpt>
   <trkpt lat="53.3513360" lon="-6.2504460">
    <ele>7.7</ele>
    <time>2025-09-04T15:02:00Z</time>
   </trkpt>
   <trkpt lat="53.3513060" lon="-6.2505910">
    <ele>7.3</ele>
    <time>2025-09-04T15:02:06Z</time>
   </trkpt>
   <trkpt lat="53.3512740" lon="-6.2507430">
    <ele>7.0</ele>
    <time>2025-09-04T15:02:11Z</time>
   </trkpt>
   <trkpt lat="53.3512680" lon="-6.2508380">
    <ele>6.6</ele>
    <time>2025-09-04T15:02:17Z</time>
   </trkpt>
   <trkpt lat="53.3512520" lon="-6.2509320">
    <ele>6.4</ele>
    <time>2025-09-04T15:02:22Z</time>
   </trkpt>
   <trkpt lat="53.3512310" lon="-6.2510550">
    <ele>6.3</ele>
    <time>2025-09-04T15:02:28Z</time>
   </trkpt>
   <trkpt lat="53.3512120" lon="-6.2511650">
    <ele>6.1</ele>
    <time>2025-09-04T15:02:34Z</time>
   </trkpt>
   <trkpt lat="53.3511930" lon="-6.2512960">
    <ele>6.1</ele>
    <time>2025-09-04T15:02:39Z</time>
   </trkpt>
   <trkpt lat="53.3511860" lon="-6.2514010">
    <ele>6.1</ele>
    <time>2025-09-04T15:02:44Z</time>
   </trkpt>
   <trkpt lat="53.3511790" lon="-6.2515210">
    <ele>6.1</ele>
    <time>2025-09-04T15:02:49Z</time>
   </trkpt>
   <trkpt lat="53.3511600" lon="-6.2516560">
    <ele>6.1</ele>
    <time>2025-09-04T15:02:54Z</time>
   </trkpt>
   <trkpt lat="53.3511340" lon="-6.2517840">
    <ele>6.1</ele>
    <time>2025-09-04T15:03:00Z</time>
   </trkpt>
   <trkpt lat="53.3511160" lon="-6.2518920">
    <ele>6.1</ele>
    <time>2025-09-04T15:03:05Z</time>
   </trkpt>
   <trkpt lat="53.3510870" lon="-6.2520410">
    <ele>6.0</ele>
    <time>2025-09-04T15:03:11Z</time>
   </trkpt>
   <trkpt lat="53.3510390" lon="-6.2520650">
    <ele>6.0</ele>
    <time>2025-09-04T15:03:22Z</time>
   </trkpt>
   <trkpt lat="53.3510360" lon="-6.2521430">
    <ele>6.0</ele>
    <time>2025-09-04T15:03:58Z</time>
   </trkpt>
   <trkpt lat="53.3510400" lon="-6.2522860">
    <ele>5.9</ele>
    <time>2025-09-04T15:04:03Z</time>
   </trkpt>
   <trkpt lat="53.3510250" lon="-6.2524540">
    <ele>5.8</ele>
    <time>2025-09-04T15:04:09Z</time>
   </trkpt>
   <trkpt lat="53.3509980" lon="-6.2525900">
    <ele>5.8</ele>
    <time>2025-09-04T15:04:14Z</time>
   </trkpt>
   <trkpt lat="53.3509980" lon="-6.2527210">
    <ele>5.8</ele>
    <time>2025-09-04T15:04:19Z</time>
   </trkpt>
   <trkpt lat="53.3509930" lon="-6.2528570">
    <ele>6.0</ele>
    <time>2025-09-04T15:04:24Z</time>
   </trkpt>
   <trkpt lat="53.3509820" lon="-6.2529780">
    <ele>6.2</ele>
    <time>2025-09-04T15:04:29Z</time>
   </trkpt>
   <trkpt lat="53.3509620" lon="-6.2531160">
    <ele>6.5</ele>
    <time>2025-09-04T15:04:35Z</time>
   </trkpt>
   <trkpt lat="53.3509060" lon="-6.2532150">
    <ele>6.7</ele>
    <time>2025-09-04T15:04:40Z</time>
   </trkpt>
   <trkpt lat="53.3508710" lon="-6.2533120">
    <ele>6.8</ele>
    <time>2025-09-04T15:04:45Z</time>
   </trkpt>
   <trkpt lat="53.3509390" lon="-6.2533100">
    <ele>7.0</ele>
    <time>2025-09-04T15:06:59Z</time>
   </trkpt>
   <trkpt lat="53.3509610" lon="-6.2534480">
    <ele>7.1</ele>
    <time>2025-09-04T15:07:04Z</time>
   </trkpt>
   <trkpt lat="53.3509960" lon="-6.2535660">
    <ele>7.3</ele>
    <time>2025-09-04T15:07:09Z</time>
   </trkpt>
   <trkpt lat="53.3509400" lon="-6.2537030">
    <ele>7.5</ele>
    <time>2025-09-04T15:07:15Z</time>
   </trkpt>
   <trkpt lat="53.3508950" lon="-6.2538330">
    <ele>7.6</ele>
    <time>2025-09-04T15:07:20Z</time>
   </trkpt>
   <trkpt lat="53.3508420" lon="-6.2539420">
    <ele>7.7</ele>
    <time>2025-09-04T15:07:25Z</time>
   </trkpt>
   <trkpt lat="53.3507980" lon="-6.2540520">
    <ele>7.8</ele>
    <time>2025-09-04T15:07:30Z</time>
   </trkpt>
   <trkpt lat="53.3507580" lon="-6.2541690">
    <ele>7.8</ele>
    <time>2025-09-04T15:07:35Z</time>
   </trkpt>
   <trkpt lat="53.3507020" lon="-6.2542430">
    <ele>7.9</ele>
    <time>2025-09-04T15:07:40Z</time>
   </trkpt>
   <trkpt lat="53.3507010" lon="-6.2543610">
    <ele>8.0</ele>
    <time>2025-09-04T15:08:07Z</time>
   </trkpt>
   <trkpt lat="53.3507240" lon="-6.2545090">
    <ele>8.1</ele>
    <time>2025-09-04T15:08:13Z</time>
   </trkpt>
   <trkpt lat="53.3506730" lon="-6.2546020">
    <ele>8.2</ele>
    <time>2025-09-04T15:08:18Z</time>
   </trkpt>
   <trkpt lat="53.3506650" lon="-6.2547040">
    <ele>8.3</ele>
    <time>2025-09-04T15:08:23Z</time>
   </trkpt>
   <trkpt lat="53.3506340" lon="-6.2548110">
    <ele>8.4</ele>
    <time>2025-09-04T15:08:28Z</time>
   </trkpt>
   <trkpt lat="53.3506170" lon="-6.2549250">
    <ele>8.5</ele>
    <time>2025-09-04T15:08:33Z</time>
   </trkpt>
   <trkpt lat="53.3505590" lon="-6.2550430">
    <ele>8.6</ele>
    <time>2025-09-04T15:08:39Z</time>
   </trkpt>
   <trkpt lat="53.3505400" lon="-6.2551630">
    <ele>8.8</ele>
    <time>2025-09-04T15:08:45Z</time>
   </trkpt>
   <trkpt lat="53.3505160" lon="-6.2552850">
    <ele>8.8</ele>
    <time>2025-09-04T15:08:50Z</time>
   </trkpt>
   <trkpt lat="53.3504990" lon="-6.2554000">
    <ele>8.8</ele>
    <time>2025-09-04T15:08:56Z</time>
   </trkpt>
   <trkpt lat="53.3504830" lon="-6.2555140">
    <ele>8.8</ele>
    <time>2025-09-04T15:09:01Z</time>
   </trkpt>
   <trkpt lat="53.3504680" lon="-6.2556430">
    <ele>8.7</ele>
    <time>2025-09-04T15:09:07Z</time>
   </trkpt>
   <trkpt lat="53.3504890" lon="-6.2557500">
    <ele>8.6</ele>
    <time>2025-09-04T15:09:12Z</time>
   </trkpt>
   <trkpt lat="53.3504800" lon="-6.2558870">
    <ele>8.4</ele>
    <time>2025-09-04T15:09:17Z</time>
   </trkpt>
   <trkpt lat="53.3504800" lon="-6.2560170">
    <ele>8.3</ele>
    <time>2025-09-04T15:09:23Z</time>
   </trkpt>
   <trkpt lat="53.3504310" lon="-6.2561410">
    <ele>8.2</ele>
    <time>2025-09-04T15:09:28Z</time>
   </trkpt>
   <trkpt lat="53.3504080" lon="-6.2562730">
    <ele>8.1</ele>
    <time>2025-09-04T15:09:34Z</time>
   </trkpt>
   <trkpt lat="53.3503890" lon="-6.2563550">
    <ele>8.0</ele>
    <time>2025-09-04T15:09:39Z</time>
   </trkpt>
   <trkpt lat="53.3503790" lon="-6.2564690">
    <ele>8.0</ele>
    <time>2025-09-04T15:09:45Z</time>
   </trkpt>
   <trkpt lat="53.3503890" lon="-6.2565620">
    <ele>7.8</ele>
    <time>2025-09-04T15:09:50Z</time>
   </trkpt>
   <trkpt lat="53.3503740" lon="-6.2566810">
    <ele>7.8</ele>
    <time>2025-09-04T15:09:55Z</time>
   </trkpt>
   <trkpt lat="53.3503600" lon="-6.2568000">
    <ele>7.8</ele>
    <time>2025-09-04T15:10:00Z</time>
   </trkpt>
   <trkpt lat="53.3503220" lon="-6.2569250">
    <ele>7.8</ele>
    <time>2025-09-04T15:10:06Z</time>
   </trkpt>
   <trkpt lat="53.3502790" lon="-6.2570150">
    <ele>7.9</ele>
    <time>2025-09-04T15:10:11Z</time>
   </trkpt>
   <trkpt lat="53.3502490" lon="-6.2571280">
    <ele>8.1</ele>
    <time>2025-09-04T15:10:16Z</time>
   </trkpt>
   <trkpt lat="53.3502150" lon="-6.2572480">
    <ele>8.3</ele>
    <time>2025-09-04T15:10:22Z</time>
   </trkpt>
   <trkpt lat="53.3501990" lon="-6.2573580">
    <ele>8.5</ele>
    <time>2025-09-04T15:10:27Z</time>
   </trkpt>
   <trkpt lat="53.3501880" lon="-6.2574710">
    <ele>8.8</ele>
    <time>2025-09-04T15:10:33Z</time>
   </trkpt>
   <trkpt lat="53.3502300" lon="-6.2574350">
    <ele>9.1</ele>
    <time>2025-09-04T15:11:47Z</time>
   </trkpt>
   <trkpt lat="53.3502870" lon="-6.2575010">
    <ele>8.9</ele>
    <time>2025-09-04T15:11:52Z</time>
   </trkpt>
   <trkpt lat="53.3502920" lon="-6.2576240">
    <ele>8.9</ele>
    <time>2025-09-04T15:11:57Z</time>
   </trkpt>
   <trkpt lat="53.3502320" lon="-6.2577330">
    <ele>9.2</ele>
    <time>2025-09-04T15:12:02Z</time>
   </trkpt>
   <trkpt lat="53.3502090" lon="-6.2578080">
    <ele>9.6</ele>
    <time>2025-09-04T15:12:08Z</time>
   </trkpt>
   <trkpt lat="53.3501650" lon="-6.2579050">
    <ele>10.1</ele>
    <time>2025-09-04T15:12:13Z</time>
   </trkpt>
   <trkpt lat="53.3501370" lon="-6.2580100">
    <ele>10.5</ele>
    <time>2025-09-04T15:12:18Z</time>
   </trkpt>
   <trkpt lat="53.3501030" lon="-6.2581450">
    <ele>11.0</ele>
    <time>2025-09-04T15:12:23Z</time>
   </trkpt>
   <trkpt lat="53.3500570" lon="-6.2582470">
    <ele>11.5</ele>
    <time>2025-09-04T15:12:29Z</time>
   </trkpt>
   <trkpt lat="53.3500320" lon="-6.2583480">
    <ele>11.7</ele>
    <time>2025-09-04T15:12:34Z</time>
   </trkpt>
   <trkpt lat="53.3500680" lon="-6.2584780">
    <ele>11.9</ele>
    <time>2025-09-04T15:12:39Z</time>
   </trkpt>
   <trkpt lat="53.3501010" lon="-6.2585770">
    <ele>11.9</ele>
    <time>2025-09-04T15:12:45Z</time>
   </trkpt>
   <trkpt lat="53.3502550" lon="-6.2585370">
    <ele>12.0</ele>
    <time>2025-09-04T15:13:15Z</time>
   </trkpt>
   <trkpt lat="53.3501570" lon="-6.2585050">
    <ele>12.0</ele>
    <time>2025-09-04T15:14:12Z</time>
   </trkpt>
   <trkpt lat="53.3501150" lon="-6.2586300">
    <ele>12.0</ele>
    <time>2025-09-04T15:14:17Z</time>
   </trkpt>
   <trkpt lat="53.3500940" lon="-6.2587080">
    <ele>11.9</ele>
    <time>2025-09-04T15:14:44Z</time>
   </trkpt>
   <trkpt lat="53.3500780" lon="-6.2588460">
    <ele>11.7</ele>
    <time>2025-09-04T15:14:50Z</time>
   </trkpt>
   <trkpt lat="53.3500750" lon="-6.2589460">
    <ele>11.6</ele>
    <time>2025-09-04T15:14:55Z</time>
   </trkpt>
   <trkpt lat="53.3500630" lon="-6.2590660">
    <ele>11.4</ele>
    <time>2025-09-04T15:15:00Z</time>
   </trkpt>
   <trkpt lat="53.3500060" lon="-6.2592120">
    <ele>11.2</ele>
    <time>2025-09-04T15:15:06Z</time>
   </trkpt>
   <trkpt lat="53.3499870" lon="-6.2593510">
    <ele>11.1</ele>
    <time>2025-09-04T15:15:11Z</time>
   </trkpt>
   <trkpt lat="53.3499870" lon="-6.2594800">
    <ele>11.0</ele>
    <time>2025-09-04T15:15:17Z</time>
   </trkpt>
   <trkpt lat="53.3499700" lon="-6.2596140">
    <ele>10.9</ele>
    <time>2025-09-04T15:15:22Z</time>
   </trkpt>
   <trkpt lat="53.3499430" lon="-6.2597440">
    <ele>10.9</ele>
    <time>2025-09-04T15:15:27Z</time>
   </trkpt>
   <trkpt lat="53.3499240" lon="-6.2598450">
    <ele>10.9</ele>
    <time>2025-09-04T15:15:33Z</time>
   </trkpt>
   <trkpt lat="53.3498930" lon="-6.2599350">
    <ele>11.0</ele>
    <time>2025-09-04T15:15:38Z</time>
   </trkpt>
   <trkpt lat="53.3498410" lon="-6.2599240">
    <ele>11.0</ele>
    <time>2025-09-04T15:15:48Z</time>
   </trkpt>
   <trkpt lat="53.3497760" lon="-6.2598820">
    <ele>11.1</ele>
    <time>2025-09-04T15:15:53Z</time>
   </trkpt>
   <trkpt lat="53.3497090" lon="-6.2598590">
    <ele>11.2</ele>
    <time>2025-09-04T15:15:59Z</time>
   </trkpt>
   <trkpt lat="53.3496420" lon="-6.2598130">
    <ele>11.3</ele>
    <time>2025-09-04T15:16:04Z</time>
   </trkpt>
   <trkpt lat="53.3495680" lon="-6.2597820">
    <ele>11.6</ele>
    <time>2025-09-04T15:16:09Z</time>
   </trkpt>
   <trkpt lat="53.3495010" lon="-6.2597350">
    <ele>11.8</ele>
    <time>2025-09-04T15:16:14Z</time>
   </trkpt>
   <trkpt lat="53.3494300" lon="-6.2597150">
    <ele>12.1</ele>
    <time>2025-09-04T15:16:20Z</time>
   </trkpt>
   <trkpt lat="53.3493580" lon="-6.2596500">
    <ele>12.4</ele>
    <time>2025-09-04T15:16:25Z</time>
   </trkpt>
   <trkpt lat="53.3493200" lon="-6.2595790">
    <ele>12.6</ele>
    <time>2025-09-04T15:16:30Z</time>
   </trkpt>
   <trkpt lat="53.3492620" lon="-6.2595900">
    <ele>12.8</ele>
    <time>2025-09-04T15:16:36Z</time>
   </trkpt>
   <trkpt lat="53.3491820" lon="-6.2595840">
    <ele>12.9</ele>
    <time>2025-09-04T15:16:42Z</time>
   </trkpt>
   <trkpt lat="53.3490980" lon="-6.2595960">
    <ele>13.0</ele>
    <time>2025-09-04T15:16:47Z</time>
   </trkpt>
   <trkpt lat="53.3490770" lon="-6.2595170">
    <ele>13.1</ele>
    <time>2025-09-04T15:17:01Z</time>
   </trkpt>
   <trkpt lat="53.3490830" lon="-6.2594240">
    <ele>13.1</ele>
    <time>2025-09-04T15:17:06Z</time>
   </trkpt>
   <trkpt lat="53.3490410" lon="-6.2593910">
    <ele>13.1</ele>
    <time>2025-09-04T15:17:28Z</time>
   </trkpt>
   <trkpt lat="53.3490170" lon="-6.2596490">
    <ele>13.1</ele>
    <time>2025-09-04T15:22:50Z</time>
   </trkpt>
   <trkpt lat="53.3489730" lon="-6.2596710">
    <ele>13.1</ele>
    <time>2025-09-04T15:22:58Z</time>
   </trkpt>
   <trkpt lat="53.3489220" lon="-6.2597530">
    <ele>13.0</ele>
    <time>2025-09-04T15:23:03Z</time>
   </trkpt>
   <trkpt lat="53.3488960" lon="-6.2598380">
    <ele>13.0</ele>
    <time>2025-09-04T15:23:08Z</time>
   </trkpt>
   <trkpt lat="53.3488810" lon="-6.2599140">
    <ele>13.0</ele>
    <time>2025-09-04T15:23:26Z</time>
   </trkpt>
   <trkpt lat="53.3488140" lon="-6.2600070">
    <ele>13.0</ele>
    <time>2025-09-04T15:23:32Z</time>
   </trkpt>
   <trkpt lat="53.3487420" lon="-6.2600700">
    <ele>12.9</ele>
    <time>2025-09-04T15:23:37Z</time>
   </trkpt>
   <trkpt lat="53.3486770" lon="-6.2600780">
    <ele>12.9</ele>
    <time>2025-09-04T15:23:42Z</time>
   </trkpt>
   <trkpt lat="53.3486340" lon="-6.2601250">
    <ele>12.9</ele>
    <time>2025-09-04T15:23:48Z</time>
   </trkpt>
   <trkpt lat="53.3486350" lon="-6.2602040">
    <ele>12.9</ele>
    <time>2025-09-04T15:23:53Z</time>
   </trkpt>
   <trkpt lat="53.3486020" lon="-6.2606430">
    <ele>13.3</ele>
    <time>2025-09-04T15:36:26Z</time>
   </trkpt>
   <trkpt lat="53.3486260" lon="-6.2605710">
    <ele>13.3</ele>
    <time>2025-09-04T15:36:36Z</time>
   </trkpt>
   <trkpt lat="53.3486430" lon="-6.2605010">
    <ele>13.2</ele>
    <time>2025-09-04T15:36:42Z</time>
   </trkpt>
   <trkpt lat="53.3486450" lon="-6.2597300">
    <ele>12.9</ele>
    <time>2025-09-04T15:38:16Z</time>
   </trkpt>
   <trkpt lat="53.3486280" lon="-6.2599390">
    <ele>12.7</ele>
    <time>2025-09-04T15:38:22Z</time>
   </trkpt>
   <trkpt lat="53.3486140" lon="-6.2600800">
    <ele>12.7</ele>
    <time>2025-09-04T15:38:27Z</time>
   </trkpt>
   <trkpt lat="53.3485800" lon="-6.2600260">
    <ele>12.7</ele>
    <time>2025-09-04T15:38:32Z</time>
   </trkpt>
   <trkpt lat="53.3485150" lon="-6.2599800">
    <ele>12.6</ele>
    <time>2025-09-04T15:38:37Z</time>
   </trkpt>
   <trkpt lat="53.3484040" lon="-6.2600560">
    <ele>12.5</ele>
    <time>2025-09-04T15:38:43Z</time>
   </trkpt>
   <trkpt lat="53.3483610" lon="-6.2601360">
    <ele>12.3</ele>
    <time>2025-09-04T15:38:49Z</time>
   </trkpt>
   <trkpt lat="53.3483690" lon="-6.2602820">
    <ele>12.4</ele>
    <time>2025-09-04T15:38:54Z</time>
   </trkpt>
   <trkpt lat="53.3483510" lon="-6.2603860">
    <ele>12.5</ele>
    <time>2025-09-04T15:39:00Z</time>
   </trkpt>
   <trkpt lat="53.3483220" lon="-6.2605400">
    <ele>12.6</ele>
    <time>2025-09-04T15:39:05Z</time>
   </trkpt>
   <trkpt lat="53.3483050" lon="-6.2606710">
    <ele>12.6</ele>
    <time>2025-09-04T15:39:10Z</time>
   </trkpt>
   <trkpt lat="53.3483020" lon="-6.2607600">
    <ele>12.8</ele>
    <time>2025-09-04T15:39:16Z</time>
   </trkpt>
   <trkpt lat="53.3483300" lon="-6.2608960">
    <ele>12.9</ele>
    <time>2025-09-04T15:39:22Z</time>
   </trkpt>
   <trkpt lat="53.3483370" lon="-6.2608110">
    <ele>13.0</ele>
    <time>2025-09-04T15:45:09Z</time>
   </trkpt>
   <trkpt lat="53.3483630" lon="-6.2608740">
    <ele>13.1</ele>
    <time>2025-09-04T15:47:16Z</time>
   </trkpt>
   <trkpt lat="53.3483350" lon="-6.2608140">
    <ele>13.0</ele>
    <time>2025-09-04T15:48:01Z</time>
   </trkpt>
   <trkpt lat="53.3483190" lon="-6.2608850">
    <ele>13.0</ele>
    <time>2025-09-04T16:07:27Z</time>
   </trkpt>
   <trkpt lat="53.3483500" lon="-6.2608100">
    <ele>13.0</ele>
    <time>2025-09-04T16:07:32Z</time>
   </trkpt>
   <trkpt lat="53.3483190" lon="-6.2608700">
    <ele>13.0</ele>
    <time>2025-09-04T16:08:02Z</time>
   </trkpt>
   <trkpt lat="53.3483510" lon="-6.2608100">
    <ele>13.0</ele>
    <time>2025-09-04T16:08:41Z</time>
   </trkpt>
   <trkpt lat="53.3483380" lon="-6.2608880">
    <ele>13.0</ele>
    <time>2025-09-04T16:08:53Z</time>
   </trkpt>
   <trkpt lat="53.3483430" lon="-6.2608120">
    <ele>13.0</ele>
    <time>2025-09-04T16:09:27Z</time>
   </trkpt>
   <trkpt lat="53.3483170" lon="-6.2608790">
    <ele>13.0</ele>
    <time>2025-09-04T16:10:01Z</time>
   </trkpt>
   <trkpt lat="53.3483430" lon="-6.2608040">
    <ele>13.0</ele>
    <time>2025-09-04T16:10:27Z</time>
   </trkpt>
   <trkpt lat="53.3482850" lon="-6.2607830">
    <ele>13.0</ele>
    <time>2025-09-04T16:11:15Z</time>
   </trkpt>
   <trkpt lat="53.3482560" lon="-6.2608760">
    <ele>12.9</ele>
    <time>2025-09-04T16:17:15Z</time>
   </trkpt>
   <trkpt lat="53.3482880" lon="-6.2610060">
    <ele>12.9</ele>
    <time>2025-09-04T16:17:21Z</time>
   </trkpt>
   <trkpt lat="53.3482740" lon="-6.2611250">
    <ele>12.9</ele>
    <time>2025-09-04T16:17:27Z</time>
   </trkpt>
   <trkpt lat="53.3482330" lon="-6.2612220">
    <ele>12.8</ele>
    <time>2025-09-04T16:17:33Z</time>
   </trkpt>
   <trkpt lat="53.3481920" lon="-6.2612530">
    <ele>12.7</ele>
    <time>2025-09-04T16:17:39Z</time>
   </trkpt>
   <trkpt lat="53.3481690" lon="-6.2613680">
    <ele>12.6</ele>
    <time>2025-09-04T16:17:45Z</time>
   </trkpt>
   <trkpt lat="53.3481950" lon="-6.2614770">
    <ele>12.6</ele>
    <time>2025-09-04T16:17:51Z</time>
   </trkpt>
   <trkpt lat="53.3482040" lon="-6.2616010">
    <ele>12.6</ele>
    <time>2025-09-04T16:17:56Z</time>
   </trkpt>
   <trkpt lat="53.3481710" lon="-6.2617510">
    <ele>12.7</ele>
    <time>2025-09-04T16:18:01Z</time>
   </trkpt>
   <trkpt lat="53.3481560" lon="-6.2618390">
    <ele>12.8</ele>
    <time>2025-09-04T16:18:06Z</time>
   </trkpt>
   <trkpt lat="53.3481600" lon="-6.2619450">
    <ele>12.9</ele>
    <time>2025-09-04T16:18:11Z</time>
   </trkpt>
   <trkpt lat="53.3481440" lon="-6.2620900">
    <ele>13.1</ele>
    <time>2025-09-04T16:18:17Z</time>
   </trkpt>
   <trkpt lat="53.3481260" lon="-6.2622170">
    <ele>13.3</ele>
    <time>2025-09-04T16:18:22Z</time>
   </trkpt>
   <trkpt lat="53.3480920" lon="-6.2623370">
    <ele>13.4</ele>
    <time>2025-09-04T16:18:28Z</time>
   </trkpt>
   <trkpt lat="53.3480150" lon="-6.2624010">
    <ele>13.4</ele>
    <time>2025-09-04T16:18:33Z</time>
   </trkpt>
   <trkpt lat="53.3479700" lon="-6.2624840">
    <ele>13.0</ele>
    <time>2025-09-04T16:18:39Z</time>
   </trkpt>
   <trkpt lat="53.3479860" lon="-6.2626190">
    <ele>13.0</ele>
    <time>2025-09-04T16:18:44Z</time>
   </trkpt>
   <trkpt lat="53.3480140" lon="-6.2627510">
    <ele>13.1</ele>
    <time>2025-09-04T16:18:50Z</time>
   </trkpt>
   <trkpt lat="53.3480060" lon="-6.2628670">
    <ele>13.2</ele>
    <time>2025-09-04T16:18:55Z</time>
   </trkpt>
   <trkpt lat="53.3479870" lon="-6.2630040">
    <ele>13.3</ele>
    <time>2025-09-04T16:19:01Z</time>
   </trkpt>
   <trkpt lat="53.3479720" lon="-6.2631620">
    <ele>13.3</ele>
    <time>2025-09-04T16:19:07Z</time>
   </trkpt>
   <trkpt lat="53.3479320" lon="-6.2632720">
    <ele>13.1</ele>
    <time>2025-09-04T16:19:12Z</time>
   </trkpt>
   <trkpt lat="53.3479100" lon="-6.2633580">
    <ele>12.9</ele>
    <time>2025-09-04T16:19:17Z</time>
   </trkpt>
   <trkpt lat="53.3479090" lon="-6.2634960">
    <ele>12.8</ele>
    <time>2025-09-04T16:19:23Z</time>
   </trkpt>
   <trkpt lat="53.3478840" lon="-6.2635920">
    <ele>12.5</ele>
    <time>2025-09-04T16:19:28Z</time>
   </trkpt>
   <trkpt lat="53.3478110" lon="-6.2635850">
    <ele>12.1</ele>
    <time>2025-09-04T16:19:34Z</time>
   </trkpt>
   <trkpt lat="53.3477370" lon="-6.2635710">
    <ele>11.8</ele>
    <time>2025-09-04T16:19:39Z</time>
   </trkpt>
   <trkpt lat="53.3476610" lon="-6.2635300">
    <ele>11.3</ele>
    <time>2025-09-04T16:19:45Z</time>
   </trkpt>
   <trkpt lat="53.3475870" lon="-6.2634740">
    <ele>11.0</ele>
    <time>2025-09-04T16:19:50Z</time>
   </trkpt>
   <trkpt lat="53.3475210" lon="-6.2634350">
    <ele>10.7</ele>
    <time>2025-09-04T16:19:55Z</time>
   </trkpt>
   <trkpt lat="53.3474510" lon="-6.2633810">
    <ele>10.2</ele>
    <time>2025-09-04T16:20:01Z</time>
   </trkpt>
   <trkpt lat="53.3473810" lon="-6.2633470">
    <ele>9.9</ele>
    <time>2025-09-04T16:20:06Z</time>
   </trkpt>
   <trkpt lat="53.3473120" lon="-6.2633040">
    <ele>9.4</ele>
    <time>2025-09-04T16:20:12Z</time>
   </trkpt>
   <trkpt lat="53.3472560" lon="-6.2632340">
    <ele>9.1</ele>
    <time>2025-09-04T16:20:17Z</time>
   </trkpt>
   <trkpt lat="53.3471930" lon="-6.2632180">
    <ele>8.6</ele>
    <time>2025-09-04T16:20:23Z</time>
   </trkpt>
   <trkpt lat="53.3471390" lon="-6.2632200">
    <ele>8.2</ele>
    <time>2025-09-04T16:20:28Z</time>
   </trkpt>
   <trkpt lat="53.3470890" lon="-6.2631960">
    <ele>7.6</ele>
    <time>2025-09-04T16:20:47Z</time>
   </trkpt>
   <trkpt lat="53.3470020" lon="-6.2631790">
    <ele>7.2</ele>
    <time>2025-09-04T16:20:52Z</time>
   </trkpt>
   <trkpt lat="53.3469140" lon="-6.2631450">
    <ele>6.9</ele>
    <time>2025-09-04T16:20:58Z</time>
   </trkpt>
   <trkpt lat="53.3468300" lon="-6.2631340">
    <ele>6.5</ele>
    <time>2025-09-04T16:21:04Z</time>
   </trkpt>
   <trkpt lat="53.3467490" lon="-6.2631140">
    <ele>6.1</ele>
    <time>2025-09-04T16:21:09Z</time>
   </trkpt>
   <trkpt lat="53.3466890" lon="-6.2631360">
    <ele>5.9</ele>
    <time>2025-09-04T16:21:14Z</time>
   </trkpt>
   <trkpt lat="53.3466090" lon="-6.2631510">
    <ele>5.8</ele>
    <time>2025-09-04T16:21:20Z</time>
   </trkpt>
   <trkpt lat="53.3465440" lon="-6.2632260">
    <ele>5.8</ele>
    <time>2025-09-04T16:21:25Z</time>
   </trkpt>
   <trkpt lat="53.3464980" lon="-6.2631950">
    <ele>5.8</ele>
    <time>2025-09-04T16:21:33Z</time>
   </trkpt>
   <trkpt lat="53.3464430" lon="-6.2631570">
    <ele>5.9</ele>
    <time>2025-09-04T16:21:39Z</time>
   </trkpt>
   <trkpt lat="53.3463870" lon="-6.2631040">
    <ele>6.0</ele>
    <time>2025-09-04T16:21:44Z</time>
   </trkpt>
   <trkpt lat="53.3463110" lon="-6.2630840">
    <ele>6.2</ele>
    <time>2025-09-04T16:21:50Z</time>
   </trkpt>
   <trkpt lat="53.3462500" lon="-6.2630520">
    <ele>6.4</ele>
    <time>2025-09-04T16:21:55Z</time>
   </trkpt>
   <trkpt lat="53.3461970" lon="-6.2630010">
    <ele>6.7</ele>
    <time>2025-09-04T16:22:01Z</time>
   </trkpt>
   <trkpt lat="53.3461360" lon="-6.2629770">
    <ele>7.0</ele>
    <time>2025-09-04T16:22:06Z</time>
   </trkpt>
   <trkpt lat="53.3460790" lon="-6.2629600">
    <ele>7.4</ele>
    <time>2025-09-04T16:22:12Z</time>
   </trkpt>
   <trkpt lat="53.3460280" lon="-6.2629650">
    <ele>7.9</ele>
    <time>2025-09-04T16:22:25Z</time>
   </trkpt>
   <trkpt lat="53.3460120" lon="-6.2628910">
    <ele>8.1</ele>
    <time>2025-09-04T16:22:30Z</time>
   </trkpt>
   <trkpt lat="53.3456580" lon="-6.2629050">
    <ele>9.7</ele>
    <time>2025-09-04T16:22:59Z</time>
   </trkpt>
   <trkpt lat="53.3456090" lon="-6.2628980">
    <ele>10.1</ele>
    <time>2025-09-04T16:23:04Z</time>
   </trkpt>
   <trkpt lat="53.3455610" lon="-6.2628480">
    <ele>10.5</ele>
    <time>2025-09-04T16:23:09Z</time>
   </trkpt>
   <trkpt lat="53.3455010" lon="-6.2628390">
    <ele>10.9</ele>
    <time>2025-09-04T16:23:15Z</time>
   </trkpt>
   <trkpt lat="53.3454390" lon="-6.2627960">
    <ele>11.3</ele>
    <time>2025-09-04T16:23:20Z</time>
   </trkpt>
   <trkpt lat="53.3453800" lon="-6.2627430">
    <ele>11.6</ele>
    <time>2025-09-04T16:23:26Z</time>
   </trkpt>
   <trkpt lat="53.3453210" lon="-6.2627400">
    <ele>12.0</ele>
    <time>2025-09-04T16:23:31Z</time>
   </trkpt>
   <trkpt lat="53.3452630" lon="-6.2626920">
    <ele>12.3</ele>
    <time>2025-09-04T16:23:36Z</time>
   </trkpt>
   <trkpt lat="53.3451870" lon="-6.2627170">
    <ele>12.6</ele>
    <time>2025-09-04T16:23:42Z</time>
   </trkpt>
   <trkpt lat="53.3451110" lon="-6.2627110">
    <ele>13.1</ele>
    <time>2025-09-04T16:23:47Z</time>
   </trkpt>
   <trkpt lat="53.3450450" lon="-6.2626650">
    <ele>13.4</ele>
    <time>2025-09-04T16:23:53Z</time>
   </trkpt>
   <trkpt lat="53.3449860" lon="-6.2626740">
    <ele>13.8</ele>
    <time>2025-09-04T16:23:58Z</time>
   </trkpt>
   <trkpt lat="53.3449380" lon="-6.2626570">
    <ele>14.2</ele>
    <time>2025-09-04T16:24:03Z</time>
   </trkpt>
   <trkpt lat="53.3448760" lon="-6.2626450">
    <ele>14.6</ele>
    <time>2025-09-04T16:24:08Z</time>
   </trkpt>
   <trkpt lat="53.3448290" lon="-6.2626670">
    <ele>15.1</ele>
    <time>2025-09-04T16:24:15Z</time>
   </trkpt>
   <trkpt lat="53.3447580" lon="-6.2626650">
    <ele>15.8</ele>
    <time>2025-09-04T16:24:21Z</time>
   </trkpt>
   <trkpt lat="53.3446730" lon="-6.2626370">
    <ele>16.3</ele>
    <time>2025-09-04T16:24:26Z</time>
   </trkpt>
   <trkpt lat="53.3445860" lon="-6.2626070">
    <ele>17.0</ele>
    <time>2025-09-04T16:24:31Z</time>
   </trkpt>
   <trkpt lat="53.3445200" lon="-6.2626880">
    <ele>17.9</ele>
    <time>2025-09-04T16:24:37Z</time>
   </trkpt>
   <trkpt lat="53.3444300" lon="-6.2626470">
    <ele>18.7</ele>
    <time>2025-09-04T16:24:42Z</time>
   </trkpt>
   <trkpt lat="53.3443350" lon="-6.2625880">
    <ele>19.7</ele>
    <time>2025-09-04T16:24:49Z</time>
   </trkpt>
   <trkpt lat="53.3443000" lon="-6.2625010">
    <ele>20.1</ele>
    <time>2025-09-04T16:24:54Z</time>
   </trkpt>
   <trkpt lat="53.3443360" lon="-6.2624260">
    <ele>20.2</ele>
    <time>2025-09-04T16:25:00Z</time>
   </trkpt>
   <trkpt lat="53.3443540" lon="-6.2623400">
    <ele>20.1</ele>
    <time>2025-09-04T16:25:05Z</time>
   </trkpt>
   <trkpt lat="53.3443700" lon="-6.2622370">
    <ele>19.8</ele>
    <time>2025-09-04T16:25:11Z</time>
   </trkpt>
   <trkpt lat="53.3443790" lon="-6.2621190">
    <ele>19.5</ele>
    <time>2025-09-04T16:25:16Z</time>
   </trkpt>
   <trkpt lat="53.3444000" lon="-6.2619780">
    <ele>18.9</ele>
    <time>2025-09-04T16:25:22Z</time>
   </trkpt>
   <trkpt lat="53.3444190" lon="-6.2618750">
    <ele>18.5</ele>
    <time>2025-09-04T16:25:27Z</time>
   </trkpt>
   <trkpt lat="53.3444440" lon="-6.2617780">
    <ele>17.9</ele>
    <time>2025-09-04T16:25:33Z</time>
   </trkpt>
   <trkpt lat="53.3444420" lon="-6.2616670">
    <ele>17.5</ele>
    <time>2025-09-04T16:25:38Z</time>
   </trkpt>
   <trkpt lat="53.3444470" lon="-6.2615550">
    <ele>17.3</ele>
    <time>2025-09-04T16:25:43Z</time>
   </trkpt>
   <trkpt lat="53.3444410" lon="-6.2614550">
    <ele>17.1</ele>
    <time>2025-09-04T16:25:48Z</time>
   </trkpt>
   <trkpt lat="53.3444470" lon="-6.2613310">
    <ele>16.9</ele>
    <time>2025-09-04T16:25:54Z</time>
   </trkpt>
   <trkpt lat="53.3444580" lon="-6.2612070">
    <ele>16.9</ele>
    <time>2025-09-04T16:25:59Z</time>
   </trkpt>
   <trkpt lat="53.3444760" lon="-6.2610810">
    <ele>16.7</ele>
    <time>2025-09-04T16:26:05Z</time>
   </trkpt>
   <trkpt lat="53.3445080" lon="-6.2609620">
    <ele>16.5</ele>
    <time>2025-09-04T16:26:10Z</time>
   </trkpt>
   <trkpt lat="53.3445280" lon="-6.2608470">
    <ele>16.2</ele>
    <time>2025-09-04T16:26:15Z</time>
   </trkpt>
   <trkpt lat="53.3445500" lon="-6.2607340">
    <ele>15.7</ele>
    <time>2025-09-04T16:26:21Z</time>
   </trkpt>
   <trkpt lat="53.3445640" lon="-6.2606010">
    <ele>15.1</ele>
    <time>2025-09-04T16:26:26Z</time>
   </trkpt>
   <trkpt lat="53.3445640" lon="-6.2604610">
    <ele>14.7</ele>
    <time>2025-09-04T16:26:31Z</time>
   </trkpt>
   <trkpt lat="53.3445690" lon="-6.2603350">
    <ele>14.0</ele>
    <time>2025-09-04T16:26:37Z</time>
   </trkpt>
   <trkpt lat="53.3445960" lon="-6.2602320">
    <ele>13.4</ele>
    <time>2025-09-04T16:26:42Z</time>
   </trkpt>
   <trkpt lat="53.3446110" lon="-6.2601140">
    <ele>12.9</ele>
    <time>2025-09-04T16:26:47Z</time>
   </trkpt>
   <trkpt lat="53.3446150" lon="-6.2599760">
    <ele>12.2</ele>
    <time>2025-09-04T16:26:53Z</time>
   </trkpt>
   <trkpt lat="53.3446010" lon="-6.2598480">
    <ele>11.8</ele>
    <time>2025-09-04T16:26:58Z</time>
   </trkpt>
   <trkpt lat="53.3445960" lon="-6.2597530">
    <ele>11.4</ele>
    <time>2025-09-04T16:27:04Z</time>
   </trkpt>
   <trkpt lat="53.3445610" lon="-6.2596780">
    <ele>11.1</ele>
    <time>2025-09-04T16:27:09Z</time>
   </trkpt>
   <trkpt lat="53.3444690" lon="-6.2596250">
    <ele>11.0</ele>
    <time>2025-09-04T16:27:14Z</time>
   </trkpt>
   <trkpt lat="53.3444030" lon="-6.2595700">
    <ele>11.1</ele>
    <time>2025-09-04T16:27:20Z</time>
   </trkpt>
   <trkpt lat="53.3444240" lon="-6.2594630">
    <ele>11.0</ele>
    <time>2025-09-04T16:27:25Z</time>
   </trkpt>
   <trkpt lat="53.3444620" lon="-6.2593670">
    <ele>10.7</ele>
    <time>2025-09-04T16:27:31Z</time>
   </trkpt>
   <trkpt lat="53.3445040" lon="-6.2593250">
    <ele>10.4</ele>
    <time>2025-09-04T16:27:36Z</time>
   </trkpt>
   <trkpt lat="53.3445030" lon="-6.2592430">
    <ele>10.2</ele>
    <time>2025-09-04T16:27:41Z</time>
   </trkpt>
   <trkpt lat="53.3444990" lon="-6.2591020">
    <ele>10.0</ele>
    <time>2025-09-04T16:27:47Z</time>
   </trkpt>
   <trkpt lat="53.3444840" lon="-6.2590110">
    <ele>9.9</ele>
    <time>2025-09-04T16:27:52Z</time>
   </trkpt>
   <trkpt lat="53.3444760" lon="-6.2587250">
    <ele>9.9</ele>
    <time>2025-09-04T16:28:28Z</time>
   </trkpt>
   <trkpt lat="53.3444940" lon="-6.2586130">
    <ele>10.0</ele>
    <time>2025-09-04T16:28:34Z</time>
   </trkpt>
   <trkpt lat="53.3445150" lon="-6.2585320">
    <ele>10.1</ele>
    <time>2025-09-04T16:28:53Z</time>
   </trkpt>
   <trkpt lat="53.3444920" lon="-6.2583810">
    <ele>10.2</ele>
    <time>2025-09-04T16:28:58Z</time>
   </trkpt>
   <trkpt lat="53.3444870" lon="-6.2582610">
    <ele>10.3</ele>
    <time>2025-09-04T16:29:03Z</time>
   </trkpt>
   <trkpt lat="53.3444550" lon="-6.2581390">
    <ele>10.4</ele>
    <time>2025-09-04T16:29:09Z</time>
   </trkpt>
   <trkpt lat="53.3444300" lon="-6.2580690">
    <ele>10.6</ele>
    <time>2025-09-04T16:29:29Z</time>
   </trkpt>
   <trkpt lat="53.3443710" lon="-6.2579100">
    <ele>10.8</ele>
    <time>2025-09-04T16:29:34Z</time>
   </trkpt>
   <trkpt lat="53.3443000" lon="-6.2578240">
    <ele>10.9</ele>
    <time>2025-09-04T16:29:40Z</time>
   </trkpt>
   <trkpt lat="53.3442320" lon="-6.2577630">
    <ele>11.0</ele>
    <time>2025-09-04T16:29:46Z</time>
   </trkpt>
   <trkpt lat="53.3441800" lon="-6.2576840">
    <ele>11.0</ele>
    <time>2025-09-04T16:29:51Z</time>
   </trkpt>
   <trkpt lat="53.3441200" lon="-6.2575870">
    <ele>11.0</ele>
    <time>2025-09-04T16:29:56Z</time>
   </trkpt>
   <trkpt lat="53.3440650" lon="-6.2575080">
    <ele>11.0</ele>
    <time>2025-09-04T16:30:01Z</time>
   </trkpt>
   <trkpt lat="53.3440260" lon="-6.2574390">
    <ele>10.9</ele>
    <time>2025-09-04T16:30:07Z</time>
   </trkpt>
   <trkpt lat="53.3439420" lon="-6.2574370">
    <ele>10.8</ele>
    <time>2025-09-04T16:30:12Z</time>
   </trkpt>
   <trkpt lat="53.3438550" lon="-6.2574200">
    <ele>10.6</ele>
    <time>2025-09-04T16:30:18Z</time>
   </trkpt>
   <trkpt lat="53.3437600" lon="-6.2573890">
    <ele>10.3</ele>
    <time>2025-09-04T16:30:24Z</time>
   </trkpt>
   <trkpt lat="53.3436860" lon="-6.2573840">
    <ele>10.1</ele>
    <time>2025-09-04T16:30:29Z</time>
   </trkpt>
   <trkpt lat="53.3436140" lon="-6.2573750">
    <ele>9.9</ele>
    <time>2025-09-04T16:30:35Z</time>
   </trkpt>
   <trkpt lat="53.3435590" lon="-6.2573910">
    <ele>9.7</ele>
    <time>2025-09-04T16:30:40Z</time>
   </trkpt>
   <trkpt lat="53.3434820" lon="-6.2574120">
    <ele>9.7</ele>
    <time>2025-09-04T16:30:45Z</time>
   </trkpt>
   <trkpt lat="53.3434040" lon="-6.2573830">
    <ele>9.6</ele>
    <time>2025-09-04T16:30:50Z</time>
   </trkpt>
   <trkpt lat="53.3433570" lon="-6.2573770">
    <ele>9.6</ele>
    <time>2025-09-04T16:30:55Z</time>
   </trkpt>
   <trkpt lat="53.3430580" lon="-6.2576560">
    <ele>11.1</ele>
    <time>2025-09-04T16:31:25Z</time>
   </trkpt>
   <trkpt lat="53.3429790" lon="-6.2575820">
    <ele>11.6</ele>
    <time>2025-09-04T16:31:31Z</time>
   </trkpt>
   <trkpt lat="53.3429230" lon="-6.2575740">
    <ele>12.0</ele>
    <time>2025-09-04T16:31:36Z</time>
   </trkpt>
   <trkpt lat="53.3428650" lon="-6.2576390">
    <ele>12.4</ele>
    <time>2025-09-04T16:31:41Z</time>
   </trkpt>
   <trkpt lat="53.3428270" lon="-6.2577690">
    <ele>13.0</ele>
    <time>2025-09-04T16:31:47Z</time>
   </trkpt>
   <trkpt lat="53.3428070" lon="-6.2579020">
    <ele>13.4</ele>
    <time>2025-09-04T16:31:52Z</time>
   </trkpt>
   <trkpt lat="53.3428060" lon="-6.2579970">
    <ele>13.9</ele>
    <time>2025-09-04T16:31:58Z</time>
   </trkpt>
   <trkpt lat="53.3428740" lon="-6.2579610">
    <ele>14.0</ele>
    <time>2025-09-04T16:42:15Z</time>
   </trkpt>
   <trkpt lat="53.3428820" lon="-6.2578210">
    <ele>13.8</ele>
    <time>2025-09-04T16:42:20Z</time>
   </trkpt>
   <trkpt lat="53.3428780" lon="-6.2576830">
    <ele>13.4</ele>
    <time>2025-09-04T16:42:26Z</time>
   </trkpt>
   <trkpt lat="53.3428500" lon="-6.2575600">
    <ele>13.2</ele>
    <time>2025-09-04T16:42:32Z</time>
   </trkpt>
   <trkpt lat="53.3428290" lon="-6.2574300">
    <ele>13.0</ele>
    <time>2025-09-04T16:42:37Z</time>
   </trkpt>
   <trkpt lat="53.3428010" lon="-6.2573180">
    <ele>12.9</ele>
    <time>2025-09-04T16:42:42Z</time>
   </trkpt>
   <trkpt lat="53.3427540" lon="-6.2572130">
    <ele>12.8</ele>
    <time>2025-09-04T16:42:48Z</time>
   </trkpt>
   <trkpt lat="53.3427370" lon="-6.2571070">
    <ele>12.8</ele>
    <time>2025-09-04T16:42:54Z</time>
   </trkpt>
   <trkpt lat="53.3426990" lon="-6.2570020">
    <ele>12.7</ele>
    <time>2025-09-04T16:43:00Z</time>
   </trkpt>
   <trkpt lat="53.3426580" lon="-6.2570370">
    <ele>12.8</ele>
    <time>2025-09-04T16:43:07Z</time>
   </trkpt>
   <trkpt lat="53.3426700" lon="-6.2569500">
    <ele>12.8</ele>
    <time>2025-09-04T16:43:30Z</time>
   </trkpt>
   <trkpt lat="53.3426660" lon="-6.2568620">
    <ele>12.7</ele>
    <time>2025-09-04T16:43:36Z</time>
   </trkpt>
   <trkpt lat="53.3426650" lon="-6.2567840">
    <ele>12.5</ele>
    <time>2025-09-04T16:43:42Z</time>
   </trkpt>
   <trkpt lat="53.3426480" lon="-6.2566930">
    <ele>12.4</ele>
    <time>2025-09-04T16:43:47Z</time>
   </trkpt>
   <trkpt lat="53.3426000" lon="-6.2565660">
    <ele>12.3</ele>
    <time>2025-09-04T16:43:53Z</time>
   </trkpt>
   <trkpt lat="53.3425700" lon="-6.2564530">
    <ele>12.4</ele>
    <time>2025-09-04T16:43:58Z</time>
   </trkpt>
   <trkpt lat="53.3425390" lon="-6.2563490">
    <ele>12.4</ele>
    <time>2025-09-04T16:44:04Z</time>
   </trkpt>
   <trkpt lat="53.3425150" lon="-6.2562550">
    <ele>12.5</ele>
    <time>2025-09-04T16:44:09Z</time>
   </trkpt>
   <trkpt lat="53.3424820" lon="-6.2561350">
    <ele>12.6</ele>
    <time>2025-09-04T16:44:14Z</time>
   </trkpt>
   <trkpt lat="53.3424490" lon="-6.2560310">
    <ele>12.7</ele>
    <time>2025-09-04T16:44:20Z</time>
   </trkpt>
   <trkpt lat="53.3424170" lon="-6.2559220">
    <ele>12.7</ele>
    <time>2025-09-04T16:44:25Z</time>
   </trkpt>
   <trkpt lat="53.3424350" lon="-6.2558340">
    <ele>12.6</ele>
    <time>2025-09-04T16:44:31Z</time>
   </trkpt>
   <trkpt lat="53.3424830" lon="-6.2557770">
    <ele>12.3</ele>
    <time>2025-09-04T16:44:41Z</time>
   </trkpt>
   <trkpt lat="53.3424590" lon="-6.2555880">
    <ele>11.7</ele>
    <time>2025-09-04T16:44:46Z</time>
   </trkpt>
   <trkpt lat="53.3424560" lon="-6.2554630">
    <ele>11.1</ele>
    <time>2025-09-04T16:44:51Z</time>
   </trkpt>
   <trkpt lat="53.3424360" lon="-6.2553420">
    <ele>10.4</ele>
    <time>2025-09-04T16:44:57Z</time>
   </trkpt>
   <trkpt lat="53.3424250" lon="-6.2552680">
    <ele>9.4</ele>
    <time>2025-09-04T16:45:21Z</time>
   </trkpt>
   <trkpt lat="53.3423910" lon="-6.2551420">
    <ele>9.0</ele>
    <time>2025-09-04T16:45:26Z</time>
   </trkpt>
   <trkpt lat="53.3423830" lon="-6.2550060">
    <ele>8.5</ele>
    <time>2025-09-04T16:45:32Z</time>
   </trkpt>
   <trkpt lat="53.3423710" lon="-6.2549020">
    <ele>8.1</ele>
    <time>2025-09-04T16:45:37Z</time>
   </trkpt>
   <trkpt lat="53.3423430" lon="-6.2547750">
    <ele>7.5</ele>
    <time>2025-09-04T16:45:43Z</time>
   </trkpt>
   <trkpt lat="53.3423080" lon="-6.2546440">
    <ele>7.1</ele>
    <time>2025-09-04T16:45:48Z</time>
   </trkpt>
   <trkpt lat="53.3422880" lon="-6.2545400">
    <ele>6.6</ele>
    <time>2025-09-04T16:45:54Z</time>
   </trkpt>
   <trkpt lat="53.3422760" lon="-6.2544230">
    <ele>6.2</ele>
    <time>2025-09-04T16:45:59Z</time>
   </trkpt>
   <trkpt lat="53.3422490" lon="-6.2543020">
    <ele>6.0</ele>
    <time>2025-09-04T16:46:04Z</time>
   </trkpt>
   <trkpt lat="53.3422160" lon="-6.2541920">
    <ele>5.8</ele>
    <time>2025-09-04T16:46:09Z</time>
   </trkpt>
   <trkpt lat="53.3421940" lon="-6.2540830">
    <ele>5.7</ele>
    <time>2025-09-04T16:46:15Z</time>
   </trkpt>
   <trkpt lat="53.3421780" lon="-6.2539740">
    <ele>5.6</ele>
    <time>2025-09-04T16:46:20Z</time>
   </trkpt>
   <trkpt lat="53.3421480" lon="-6.2538970">
    <ele>5.6</ele>
    <time>2025-09-04T16:46:26Z</time>
   </trkpt>
   <trkpt lat="53.3421230" lon="-6.2538040">
    <ele>5.7</ele>
    <time>2025-09-04T16:46:31Z</time>
   </trkpt>
   <trkpt lat="53.3420970" lon="-6.2536780">
    <ele>5.8</ele>
    <time>2025-09-04T16:46:36Z</time>
   </trkpt>
   <trkpt lat="53.3420700" lon="-6.2535440">
    <ele>6.0</ele>
    <time>2025-09-04T16:46:42Z</time>
   </trkpt>
   <trkpt lat="53.3420420" lon="-6.2534470">
    <ele>6.2</ele>
    <time>2025-09-04T16:46:47Z</time>
   </trkpt>
   <trkpt lat="53.3420160" lon="-6.2533320">
    <ele>6.5</ele>
    <time>2025-09-04T16:46:53Z</time>
   </trkpt>
   <trkpt lat="53.3420080" lon="-6.2532310">
    <ele>6.7</ele>
    <time>2025-09-04T16:46:58Z</time>
   </trkpt>
   <trkpt lat="53.3419790" lon="-6.2531060">
    <ele>7.0</ele>
    <time>2025-09-04T16:47:03Z</time>
   </trkpt>
   <trkpt lat="53.3419390" lon="-6.2529570">
    <ele>7.3</ele>
    <time>2025-09-04T16:47:09Z</time>
   </trkpt>
   <trkpt lat="53.3419350" lon="-6.2528300">
    <ele>7.5</ele>
    <time>2025-09-04T16:47:14Z</time>
   </trkpt>
   <trkpt lat="53.3419320" lon="-6.2527060">
    <ele>7.7</ele>
    <time>2025-09-04T16:47:20Z</time>
   </trkpt>
   <trkpt lat="53.3419390" lon="-6.2525820">
    <ele>7.9</ele>
    <time>2025-09-04T16:47:25Z</time>
   </trkpt>
   <trkpt lat="53.3419550" lon="-6.2524710">
    <ele>8.1</ele>
    <time>2025-09-04T16:47:30Z</time>
   </trkpt>
   <trkpt lat="53.3419850" lon="-6.2523610">
    <ele>8.4</ele>
    <time>2025-09-04T16:47:36Z</time>
   </trkpt>
   <trkpt lat="53.3420200" lon="-6.2522590">
    <ele>8.6</ele>
    <time>2025-09-04T16:47:41Z</time>
   </trkpt>
   <trkpt lat="53.3420410" lon="-6.2521410">
    <ele>8.9</ele>
    <time>2025-09-04T16:47:46Z</time>
   </trkpt>
   <trkpt lat="53.3420800" lon="-6.2520410">
    <ele>9.4</ele>
    <time>2025-09-04T16:47:51Z</time>
   </trkpt>
   <trkpt lat="53.3421370" lon="-6.2519310">
    <ele>9.8</ele>
    <time>2025-09-04T16:47:57Z</time>
   </trkpt>
   <trkpt lat="53.3421750" lon="-6.2518630">
    <ele>10.1</ele>
    <time>2025-09-04T16:48:02Z</time>
   </trkpt>
   <trkpt lat="53.3422230" lon="-6.2517440">
    <ele>10.5</ele>
    <time>2025-09-04T16:48:08Z</time>
   </trkpt>
   <trkpt lat="53.3422600" lon="-6.2516200">
    <ele>10.9</ele>
    <time>2025-09-04T16:48:14Z</time>
   </trkpt>
   <trkpt lat="53.3422770" lon="-6.2515110">
    <ele>11.3</ele>
    <time>2025-09-04T16:48:19Z</time>
   </trkpt>
   <trkpt lat="53.3422860" lon="-6.2514200">
    <ele>11.7</ele>
    <time>2025-09-04T16:48:24Z</time>
   </trkpt>
   <trkpt lat="53.3422520" lon="-6.2512830">
    <ele>12.2</ele>
    <time>2025-09-04T16:48:30Z</time>
   </trkpt>
   <trkpt lat="53.3422120" lon="-6.2511800">
    <ele>12.8</ele>
    <time>2025-09-04T16:48:35Z</time>
   </trkpt>
   <trkpt lat="53.3421930" lon="-6.2510690">
    <ele>13.3</ele>
    <time>2025-09-04T16:48:40Z</time>
   </trkpt>
   <trkpt lat="53.3421590" lon="-6.2509400">
    <ele>13.6</ele>
    <time>2025-09-04T16:48:46Z</time>
   </trkpt>
   <trkpt lat="53.3421400" lon="-6.2508300">
    <ele>13.9</ele>
    <time>2025-09-04T16:48:52Z</time>
   </trkpt>
   <trkpt lat="53.3421170" lon="-6.2506970">
    <ele>14.0</ele>
    <time>2025-09-04T16:48:57Z</time>
   </trkpt>
   <trkpt lat="53.3421310" lon="-6.2506140">
    <ele>14.0</ele>
    <time>2025-09-04T16:49:02Z</time>
   </trkpt>
   <trkpt lat="53.3421830" lon="-6.2505770">
    <ele>13.9</ele>
    <time>2025-09-04T16:49:09Z</time>
   </trkpt>
   <trkpt lat="53.3422430" lon="-6.2505810">
    <ele>13.8</ele>
    <time>2025-09-04T16:49:15Z</time>
   </trkpt>
   <trkpt lat="53.3423060" lon="-6.2505540">
    <ele>13.7</ele>
    <time>2025-09-04T16:49:20Z</time>
   </trkpt>
   <trkpt lat="53.3423610" lon="-6.2505100">
    <ele>13.6</ele>
    <time>2025-09-04T16:49:25Z</time>
   </trkpt>
   <trkpt lat="53.3424260" lon="-6.2504710">
    <ele>13.4</ele>
    <time>2025-09-04T16:49:31Z</time>
   </trkpt>
   <trkpt lat="53.3424950" lon="-6.2504570">
    <ele>13.2</ele>
    <time>2025-09-04T16:49:36Z</time>
   </trkpt>
   <trkpt lat="53.3425670" lon="-6.2504260">
    <ele>13.1</ele>
    <time>2025-09-04T16:49:41Z</time>
   </trkpt>
   <trkpt lat="53.3426570" lon="-6.2504090">
    <ele>12.8</ele>
    <time>2025-09-04T16:49:47Z</time>
   </trkpt>
   <trkpt lat="53.3427270" lon="-6.2503830">
    <ele>12.7</ele>
    <time>2025-09-04T16:49:52Z</time>
   </trkpt>
   <trkpt lat="53.3427960" lon="-6.2503470">
    <ele>12.4</ele>
    <time>2025-09-04T16:49:58Z</time>
   </trkpt>
   <trkpt lat="53.3428480" lon="-6.2502660">
    <ele>12.1</ele>
    <time>2025-09-04T16:50:03Z</time>
   </trkpt>
   <trkpt lat="53.3429150" lon="-6.2502040">
    <ele>11.8</ele>
    <time>2025-09-04T16:50:08Z</time>
   </trkpt>
   <trkpt lat="53.3429870" lon="-6.2501560">
    <ele>11.4</ele>
    <time>2025-09-04T16:50:14Z</time>
   </trkpt>
   <trkpt lat="53.3430550" lon="-6.2501140">
    <ele>11.1</ele>
    <time>2025-09-04T16:50:19Z</time>
   </trkpt>
   <trkpt lat="53.3431220" lon="-6.2500690">
    <ele>10.9</ele>
    <time>2025-09-04T16:50:24Z</time>
   </trkpt>
   <trkpt lat="53.3431840" lon="-6.2500370">
    <ele>10.6</ele>
    <time>2025-09-04T16:50:29Z</time>
   </trkpt>
   <trkpt lat="53.3432560" lon="-6.2500450">
    <ele>10.4</ele>
    <time>2025-09-04T16:50:35Z</time>
   </trkpt>
   <trkpt lat="53.3433260" lon="-6.2500110">
    <ele>10.3</ele>
    <time>2025-09-04T16:50:40Z</time>
   </trkpt>
   <trkpt lat="53.3434180" lon="-6.2499420">
    <ele>10.0</ele>
    <time>2025-09-04T16:50:45Z</time>
   </trkpt>
   <trkpt lat="53.3434400" lon="-6.2497660">
    <ele>9.8</ele>
    <time>2025-09-04T16:50:51Z</time>
   </trkpt>
   <trkpt lat="53.3434820" lon="-6.2496550">
    <ele>9.5</ele>
    <time>2025-09-04T16:50:56Z</time>
   </trkpt>
   <trkpt lat="53.3435210" lon="-6.2496010">
    <ele>9.2</ele>
    <time>2025-09-04T16:51:12Z</time>
   </trkpt>
   <trkpt lat="53.3435170" lon="-6.2490520">
    <ele>8.9</ele>
    <time>2025-09-04T16:51:46Z</time>
   </trkpt>
   <trkpt lat="53.3434670" lon="-6.2489220">
    <ele>9.0</ele>
    <time>2025-09-04T16:51:51Z</time>
   </trkpt>
   <trkpt lat="53.3434440" lon="-6.2488290">
    <ele>9.1</ele>
    <time>2025-09-04T16:51:57Z</time>
   </trkpt>
   <trkpt lat="53.3434010" lon="-6.2487890">
    <ele>9.2</ele>
    <time>2025-09-04T16:52:03Z</time>
   </trkpt>
   <trkpt lat="53.3433810" lon="-6.2488590">
    <ele>9.3</ele>
    <time>2025-09-04T16:52:29Z</time>
   </trkpt>
   <trkpt lat="53.3433560" lon="-6.2489230">
    <ele>9.2</ele>
    <time>2025-09-04T16:53:02Z</time>
   </trkpt>
   <trkpt lat="53.3433260" lon="-6.2489880">
    <ele>9.2</ele>
    <time>2025-09-04T16:53:09Z</time>
   </trkpt>
   <trkpt lat="53.3433220" lon="-6.2490690">
    <ele>9.1</ele>
    <time>2025-09-04T16:53:15Z</time>
   </trkpt>
  </trkseg>
 </trk>
</gpx>
